< < Back
Terminal Aerodrome Forecast


Current Version              Previous Versions:   1  2  3  4  5  6  7  8  9  

Terminal Aerodrome Forecast

577
FTUS42 KFFC 290527
TAFCSG
TAF
KCSG 290527Z 2906/3006 04002KT 6SM -RA BR SCT007 OVC015
      TEMPO 2906/2909 3SM -RADZ BR BKN007
     FM290900 36002KT 2SM -RADZ BR OVC006
     FM291400 35004KT 4SM -RA BR OVC012
     FM291700 35004KT 6SM BR BKN025
     FM292000 02005KT P6SM BKN035
     FM300300 35003KT 6SM BR BKN020=

Latest METAR

465
SAUS70 KWBC 291500 RRA
MTRCSG
METAR KCSG 291451Z 34003KT 10SM BKN046 14/12 A3014 RMK AO2 SLP203 60000
T01390122 53040


USA.gov is the U.S. government's official web portal to all federal, state and local government web resources and services.